createdAt,value
2018-12-03T21:07:06.907Z,6.47
2018-12-03T21:09:42.238Z,6.20
2018-12-03T21:12:10.686Z,6.70
2018-12-03T21:14:39.157Z,7.23
2018-12-03T21:17:07.694Z,7.10
2018-12-03T21:19:36.175Z,6.80
2018-12-03T21:22:04.647Z,6.43
2018-12-03T21:24:33.148Z,7.70
2018-12-03T21:27:01.625Z,6.73
2018-12-03T21:29:30.115Z,7.40
2018-12-03T21:31:58.565Z,8.03
2018-12-03T21:34:27.029Z,8.00
2018-12-03T21:36:55.492Z,7.67
2018-12-03T21:39:23.942Z,7.77
2018-12-03T21:41:52.420Z,8.03
2018-12-03T21:44:20.867Z,7.50
2018-12-03T21:46:49.363Z,7.43
2018-12-03T21:49:17.845Z,7.37
2018-12-03T21:51:46.325Z,8.07
2018-12-03T21:54:14.779Z,8.33
2018-12-03T21:56:43.263Z,7.60
2018-12-03T21:59:11.730Z,7.80
2018-12-03T22:01:40.200Z,8.30
2018-12-03T22:04:08.663Z,8.73
2018-12-03T22:06:37.148Z,8.67
2018-12-03T22:09:06.625Z,9.00
2018-12-03T22:11:35.144Z,9.07
2018-12-03T22:14:06.510Z,9.10
2018-12-03T22:16:34.990Z,9.27
2018-12-03T22:19:03.445Z,8.47
2018-12-03T22:21:32.998Z,8.33
2018-12-03T22:24:01.486Z,8.70
2018-12-03T22:26:29.986Z,8.60
2018-12-03T22:28:58.440Z,9.27
2018-12-03T22:31:26.905Z,8.93
2018-12-03T22:33:55.391Z,8.10
2018-12-03T22:36:23.867Z,8.90
2018-12-03T22:38:52.313Z,8.10
2018-12-03T22:41:20.805Z,8.33
2018-12-03T22:43:49.285Z,8.80
2018-12-03T22:46:17.786Z,8.50
2018-12-03T22:48:46.233Z,8.80
2018-12-03T22:51:14.734Z,8.10
2018-12-03T22:53:59.620Z,9.23
2018-12-03T22:56:28.099Z,8.40
2018-12-03T22:58:56.559Z,9.00
2018-12-03T23:01:25.032Z,9.17
2018-12-03T23:03:53.470Z,9.10
2018-12-03T23:06:21.957Z,9.90
2018-12-03T23:08:50.450Z,10.10
2018-12-03T23:11:18.928Z,9.30
2018-12-03T23:13:47.377Z,10.63
2018-12-03T23:16:16.249Z,9.40
2018-12-03T23:18:44.729Z,10.13
2018-12-03T23:21:13.192Z,10.37
2018-12-03T23:23:41.686Z,10.30
2018-12-03T23:26:10.132Z,10.17
2018-12-03T23:28:38.614Z,10.80
2018-12-03T23:31:07.098Z,9.90
2018-12-03T23:33:35.574Z,9.83
2018-12-03T23:36:04.068Z,5.40
2018-12-03T23:38:32.552Z,3.80
2018-12-03T23:41:00.996Z,2.33
2018-12-03T23:43:29.517Z,3.20
2018-12-03T23:45:57.958Z,2.60
2018-12-03T23:48:26.429Z,1.83
2018-12-03T23:50:54.880Z,1.40
2018-12-03T23:53:23.352Z,1.97
2018-12-03T23:55:51.809Z,1.87
2018-12-03T23:58:20.290Z,1.00
